Time;durP1;ratioP1;P1;durP2;ratioP2;P2;SDS_P1;SDS_P2;PMS_P1;PMS_P2;Temp;Humidity;BMP_temperature;BMP_pressure;BME280_temperature;BME280_humidity;BME280_pressure;Samples;Min_cycle;Max_cycle;Signal;HPM_P1;HPM_P2
2022/10/01 00:00:50;;;;;;;14.20;10.75;;;16.30;89.90;;;;;;5034021;28;20459;-55
2022/10/01 00:03:16;;;;;;;14.35;12.27;;;16.30;89.90;;;;;;5049867;28;20029;-55
2022/10/01 00:05:42;;;;;;;16.23;11.45;;;16.30;90.00;;;;;;5051185;28;20025;-54
2022/10/01 00:08:08;;;;;;;19.85;12.27;;;16.40;90.00;;;;;;5038979;28;20033;-55
2022/10/01 00:10:37;;;;;;;15.93;12.30;;;16.40;89.80;;;;;;5032688;28;20412;-56
2022/10/01 00:13:03;;;;;;;15.95;11.68;;;16.40;89.80;;;;;;5047276;28;20320;-54
2022/10/01 00:15:28;;;;;;;15.85;12.27;;;16.40;90.00;;;;;;5052735;28;20108;-54
2022/10/01 00:17:54;;;;;;;15.70;13.00;;;16.30;89.80;;;;;;5050973;28;20318;-54
2022/10/01 00:20:19;;;;;;;18.13;13.93;;;16.30;89.80;;;;;;5048548;28;20095;-56
2022/10/01 00:22:46;;;;;;;20.25;12.73;;;16.20;90.00;;;;;;5039634;28;20107;-55
2022/10/01 00:25:12;;;;;;;18.17;12.18;;;16.10;90.00;;;;;;5032414;28;20026;-55
2022/10/01 00:27:38;;;;;;;18.20;14.73;;;16.10;90.20;;;;;;5034482;28;20399;-56
2022/10/01 00:30:05;;;;;;;19.33;13.97;;;16.00;90.30;;;;;;5052107;28;20021;-54
2022/10/01 00:32:31;;;;;;;17.67;13.90;;;16.10;90.20;;;;;;5041656;28;20470;-55
2022/10/01 00:34:59;;;;;;;19.55;16.10;;;16.00;90.20;;;;;;5033414;28;20101;-55
2022/10/01 00:37:25;;;;;;;22.92;17.35;;;16.00;90.20;;;;;;5050408;28;20387;-54
2022/10/01 00:39:50;;;;;;;23.13;17.25;;;15.90;90.50;;;;;;5051584;28;20025;-57
2022/10/01 00:42:22;;;;;;;26.83;19.00;;;15.80;90.50;;;;;;5043935;28;20530;-54
2022/10/01 00:44:49;;;;;;;24.92;17.92;;;15.70;90.70;;;;;;5032219;28;20037;-54
2022/10/01 00:47:20;;;;;;;24.30;16.30;;;15.70;90.90;;;;;;5043326;28;20033;-55
2022/10/01 00:49:47;;;;;;;25.17;19.88;;;15.70;90.80;;;;;;5046588;28;20025;-55
2022/10/01 00:52:17;;;;;;;24.95;19.10;;;15.70;90.80;;;;;;5037520;28;20104;-56
2022/10/01 00:54:54;;;;;;;24.92;18.67;;;15.80;90.90;;;;;;5032328;28;20525;-55
2022/10/01 00:57:24;;;;;;;27.23;19.73;;;15.80;90.70;;;;;;5031918;28;20033;-55
2022/10/01 00:59:53;;;;;;;28.08;20.77;;;15.90;90.70;;;;;;5037004;28;20025;-56
2022/10/01 01:02:19;;;;;;;27.92;20.83;;;15.90;90.60;;;;;;5047550;28;20029;-56
2022/10/01 01:04:44;;;;;;;25.45;20.58;;;15.90;90.70;;;;;;5048766;28;20029;-54
2022/10/01 01:07:10;;;;;;;25.83;19.92;;;15.90;90.70;;;;;;5031885;28;20395;-56
2022/10/01 01:09:48;;;;;;;29.77;21.60;;;15.90;90.70;;;;;;5031640;28;20107;-56
2022/10/01 01:12:32;;;;;;;25.90;19.33;;;16.00;90.70;;;;;;5036357;28;20032;-55
2022/10/01 01:15:31;;;;;;;25.88;19.50;;;16.00;90.50;;;;;;5061692;28;20028;-55
2022/10/01 01:18:18;;;;;;;32.75;22.05;;;16.00;90.30;;;;;;5035635;28;20033;-54
2022/10/01 01:21:00;;;;;;;29.65;22.92;;;15.90;90.50;;;;;;5043627;28;20036;-56
2022/10/01 01:23:41;;;;;;;36.25;26.13;;;15.80;90.80;;;;;;5034012;28;20108;-54
2022/10/01 01:26:24;;;;;;;29.48;21.98;;;15.80;90.90;;;;;;5031569;28;20076;-56
2022/10/01 01:28:56;;;;;;;32.15;22.83;;;15.80;90.80;;;;;;5044200;28;20523;-56
2022/10/01 01:31:32;;;;;;;28.52;22.17;;;15.80;90.70;;;;;;5049587;28;20063;-55
2022/10/01 01:33:59;;;;;;;36.80;23.85;;;15.80;90.80;;;;;;5031572;28;20052;-54
2022/10/01 01:36:34;;;;;;;34.45;26.25;;;15.80;90.90;;;;;;5048993;28;20112;-56
2022/10/01 01:39:03;;;;;;;38.03;26.10;;;15.70;91.00;;;;;;5050960;28;20079;-54
2022/10/01 01:41:33;;;;;;;38.67;26.88;;;15.70;91.10;;;;;;5051031;28;20056;-56
2022/10/01 01:44:01;;;;;;;39.47;26.35;;;15.60;91.20;;;;;;5034828;28;20033;-56
2022/10/01 01:46:33;;;;;;;31.42;24.42;;;15.50;91.10;;;;;;5031340;28;20035;-55
2022/10/01 01:49:04;;;;;;;33.42;22.38;;;15.60;91.00;;;;;;5030854;28;20440;-56
2022/10/01 01:51:44;;;;;;;31.35;23.13;;;15.50;91.00;;;;;;5048021;28;20029;-54
2022/10/01 01:54:11;;;;;;;29.80;20.48;;;15.40;90.80;;;;;;5033438;28;20029;-55
2022/10/01 01:56:40;;;;;;;31.38;23.77;;;15.30;90.80;;;;;;5055262;28;20096;-56
2022/10/01 01:59:07;;;;;;;35.55;24.05;;;15.30;90.90;;;;;;5070853;28;20044;-54
2022/10/01 02:01:43;;;;;;;28.60;23.15;;;15.30;91.10;;;;;;5057287;28;20086;-56
2022/10/01 02:04:14;;;;;;;38.60;26.90;;;15.30;91.10;;;;;;5051025;28;20483;-54
2022/10/01 02:07:04;;;;;;;28.90;22.73;;;15.30;91.20;;;;;;5054964;28;20065;-55
2022/10/01 02:09:56;;;;;;;29.98;22.65;;;15.20;91.30;;;;;;5034642;28;20021;-55
2022/10/01 02:12:54;;;;;;;36.60;25.27;;;15.20;91.10;;;;;;5035465;28;20026;-56
2022/10/01 02:16:00;;;;;;;29.67;23.13;;;15.30;91.20;;;;;;5035963;28;20113;-56
2022/10/01 02:18:28;;;;;;;35.33;24.20;;;15.30;91.10;;;;;;5048653;28;20025;-56
2022/10/01 02:21:06;;;;;;;36.60;24.83;;;15.30;91.00;;;;;;5054814;28;20044;-54
2022/10/01 02:24:05;;;;;;;30.45;23.17;;;15.30;90.90;;;;;;5044106;28;20036;-54
2022/10/01 02:26:34;;;;;;;31.13;23.88;;;15.20;91.00;;;;;;5018048;28;20423;-55
2022/10/01 02:29:05;;;;;;;36.58;23.00;;;15.10;91.00;;;;;;5033437;28;20487;-54
2022/10/01 02:31:31;;;;;;;31.95;23.98;;;15.10;90.90;;;;;;5035559;28;20041;-54
2022/10/01 02:34:00;;;;;;;34.85;24.48;;;15.00;90.90;;;;;;5072467;23;20098;-60
2022/10/01 02:36:28;;;;;;;32.92;24.38;;;14.90;91.00;;;;;;5032824;28;20487;-59
2022/10/01 02:38:56;;;;;;;38.72;24.38;;;14.80;91.10;;;;;;5033725;28;20029;-59
2022/10/01 02:41:29;;;;;;;38.95;26.30;;;14.80;91.40;;;;;;5034261;28;20036;-59
2022/10/01 02:43:57;;;;;;;39.75;26.50;;;14.80;91.40;;;;;;5016729;28;20037;-59
2022/10/01 02:46:57;;;;;;;41.67;25.30;;;14.80;91.50;;;;;;5014220;28;20213;-60
2022/10/01 02:49:24;;;;;;;33.78;23.60;;;14.80;91.70;;;;;;5014335;28;20041;-59
2022/10/01 02:51:55;;;;;;;36.97;24.27;;;14.70;91.60;;;;;;5013602;28;20412;-58
2022/10/01 02:54:33;;;;;;;36.58;23.40;;;14.70;91.70;;;;;;5013024;28;20502;-58
2022/10/01 02:59:43;;;;;;;41.95;24.77;;;14.60;91.80;;;;;;5014493;28;20120;-57
2022/10/01 03:02:09;;;;;;;42.95;25.45;;;14.60;91.80;;;;;;5012881;28;20109;-59
2022/10/01 03:04:35;;;;;;;36.00;23.98;;;14.60;91.70;;;;;;5014015;28;20117;-59
2022/10/01 03:07:03;;;;;;;30.35;22.67;;;14.60;91.70;;;;;;5013515;28;20476;-57
2022/10/01 03:09:35;;;;;;;40.28;23.20;;;14.60;91.70;;;;;;5012178;28;20396;-59
2022/10/01 03:12:02;;;;;;;40.17;24.13;;;14.50;91.90;;;;;;5012437;28;20029;-59
2022/10/01 03:14:28;;;;;;;32.90;23.13;;;14.40;91.90;;;;;;5010653;28;20443;-59
2022/10/01 03:16:54;;;;;;;32.58;23.08;;;14.40;91.90;;;;;;5014028;28;20026;-58
2022/10/01 03:19:20;;;;;;;35.28;22.55;;;14.40;91.90;;;;;;5012557;28;20026;-58
2022/10/01 03:21:46;;;;;;;32.95;21.52;;;14.40;91.80;;;;;;5013651;28;20075;-59
2022/10/01 03:24:12;;;;;;;30.02;20.55;;;14.50;91.80;;;;;;5013561;28;20493;-58
2022/10/01 03:26:37;;;;;;;34.70;20.88;;;14.40;91.80;;;;;;5013694;28;20034;-59
2022/10/01 03:29:04;;;;;;;31.25;21.75;;;14.40;92.00;;;;;;5013548;28;20161;-58
2022/10/01 03:31:29;;;;;;;34.97;21.00;;;14.40;91.70;;;;;;5013277;28;20070;-59
2022/10/01 03:33:59;;;;;;;33.95;22.17;;;14.40;91.70;;;;;;5013238;28;20363;-59
2022/10/01 03:36:28;;;;;;;31.73;23.10;;;14.30;91.70;;;;;;5013258;28;20049;-59
2022/10/01 03:38:54;;;;;;;28.88;21.60;;;14.30;91.90;;;;;;5013149;28;20037;-59
2022/10/01 03:41:20;;;;;;;35.40;22.90;;;14.30;91.80;;;;;;5012905;28;20026;-59
2022/10/01 03:43:45;;;;;;;32.63;22.90;;;14.30;91.90;;;;;;5012606;28;20543;-59
2022/10/01 03:46:11;;;;;;;30.50;20.90;;;14.30;91.90;;;;;;5013556;28;20029;-59
2022/10/01 03:48:37;;;;;;;30.90;21.58;;;14.30;91.80;;;;;;5013262;28;20018;-59
2022/10/01 03:51:03;;;;;;;34.80;23.83;;;14.30;91.60;;;;;;5011887;28;20081;-59
2022/10/01 03:53:30;;;;;;;30.88;21.83;;;14.30;91.80;;;;;;5012957;28;20052;-59
2022/10/01 03:55:56;;;;;;;31.77;22.92;;;14.20;91.80;;;;;;5012909;28;20099;-59
2022/10/01 03:58:22;;;;;;;32.35;23.13;;;14.30;91.70;;;;;;5012658;28;20463;-60
2022/10/01 04:00:48;;;;;;;30.63;22.83;;;14.20;91.70;;;;;;5012004;28;20036;-59
2022/10/01 04:03:14;;;;;;;32.70;24.38;;;14.20;91.70;;;;;;5013114;28;20038;-59
2022/10/01 04:05:42;;;;;;;33.47;23.73;;;14.30;91.70;;;;;;5011865;28;20032;-59
2022/10/01 04:08:07;;;;;;;32.78;22.85;;;14.20;91.60;;;;;;5012830;28;20088;-58
2022/10/01 04:10:33;;;;;;;29.65;22.30;;;14.20;91.50;;;;;;5012858;28;20021;-59
2022/10/01 04:12:59;;;;;;;32.90;23.20;;;14.20;91.40;;;;;;5012808;28;20022;-59
2022/10/01 04:15:25;;;;;;;36.17;23.85;;;14.20;91.30;;;;;;5012767;28;20065;-59
2022/10/01 04:17:50;;;;;;;32.55;23.67;;;14.20;91.40;;;;;;5010411;28;20388;-60
2022/10/01 04:20:17;;;;;;;35.78;23.48;;;14.20;91.50;;;;;;5011310;28;20029;-57
2022/10/01 04:22:43;;;;;;;33.03;23.98;;;14.10;91.50;;;;;;5012720;28;20049;-59
2022/10/01 04:25:09;;;;;;;33.50;23.87;;;14.10;91.50;;;;;;5012718;28;20160;-60
2022/10/01 04:27:54;;;;;;;37.25;25.63;;;14.10;91.50;;;;;;5010753;28;20311;-60
2022/10/01 04:30:20;;;;;;;40.03;26.40;;;14.00;91.70;;;;;;5012460;28;20114;-59
2022/10/01 04:32:45;;;;;;;39.17;28.25;;;14.00;91.70;;;;;;5012381;28;20030;-59
2022/10/01 04:35:11;;;;;;;41.45;24.88;;;14.00;91.70;;;;;;5012664;28;20167;-58
2022/10/01 04:37:37;;;;;;;39.58;25.80;;;13.90;91.70;;;;;;5012684;28;20022;-56
2022/10/01 04:40:04;;;;;;;36.80;26.27;;;13.90;91.70;;;;;;5012408;28;20049;-57
2022/10/01 04:42:30;;;;;;;35.28;23.60;;;13.90;91.70;;;;;;5012438;28;20391;-58
2022/10/01 04:44:56;;;;;;;38.17;25.77;;;13.90;91.80;;;;;;5012368;28;20040;-58
2022/10/01 04:47:22;;;;;;;31.98;23.90;;;13.90;91.70;;;;;;5012367;28;20503;-57
2022/10/01 04:49:48;;;;;;;37.92;25.02;;;13.90;91.70;;;;;;5011974;28;20030;-57
2022/10/01 04:52:14;;;;;;;36.70;24.48;;;13.90;91.70;;;;;;5012240;28;20084;-59
2022/10/01 04:54:39;;;;;;;32.90;23.83;;;13.90;91.60;;;;;;5012267;28;20474;-59
2022/10/01 04:57:05;;;;;;;36.65;23.10;;;13.90;91.40;;;;;;5012237;28;20018;-59
2022/10/01 04:59:32;;;;;;;34.63;24.70;;;13.90;91.40;;;;;;5012082;28;20507;-59
2022/10/01 05:01:58;;;;;;;35.10;25.27;;;13.90;91.30;;;;;;5012009;28;20101;-59
2022/10/01 05:04:23;;;;;;;37.30;25.63;;;13.90;91.40;;;;;;5012000;28;20572;-58
2022/10/01 05:06:49;;;;;;;34.72;24.60;;;13.90;91.60;;;;;;5010765;28;20117;-58
2022/10/01 05:09:15;;;;;;;36.78;24.67;;;13.90;91.60;;;;;;5011860;28;20030;-60
2022/10/01 05:11:41;;;;;;;34.83;24.38;;;14.00;91.60;;;;;;5011997;28;20058;-59
2022/10/01 05:14:07;;;;;;;36.55;23.85;;;14.00;91.50;;;;;;5011920;28;20021;-56
2022/10/01 05:16:33;;;;;;;38.97;25.92;;;14.10;91.40;;;;;;5010662;28;20026;-58
2022/10/01 05:18:58;;;;;;;34.03;23.70;;;14.20;91.30;;;;;;5011708;28;20033;-57
2022/10/01 05:21:24;;;;;;;39.00;25.08;;;14.20;91.30;;;;;;5011908;28;20145;-59
2022/10/01 05:23:49;;;;;;;37.42;26.15;;;14.20;91.20;;;;;;5010594;28;20515;-60
2022/10/01 05:26:15;;;;;;;35.95;25.38;;;14.20;91.30;;;;;;5011870;28;20388;-57
2022/10/01 05:28:43;;;;;;;40.45;26.35;;;14.20;91.30;;;;;;5011717;28;20492;-57
2022/10/01 05:31:10;;;;;;;40.75;26.23;;;14.20;91.30;;;;;;5010475;28;20052;-59
2022/10/01 05:33:37;;;;;;;40.88;27.27;;;14.20;91.50;;;;;;5011439;28;20505;-60
2022/10/01 05:36:05;;;;;;;43.60;26.90;;;14.20;91.60;;;;;;5011742;28;20029;-60
2022/10/01 05:38:35;;;;;;;46.10;28.83;;;14.10;91.70;;;;;;5013406;28;20117;-49
2022/10/01 05:41:00;;;;;;;40.25;27.20;;;14.10;91.70;;;;;;5015844;28;20120;-61
2022/10/01 05:43:26;;;;;;;45.65;28.27;;;14.00;91.70;;;;;;5015628;28;20053;-61
2022/10/01 05:45:52;;;;;;;46.65;29.65;;;14.00;91.80;;;;;;5015643;28;20460;-56
2022/10/01 05:48:17;;;;;;;42.08;28.65;;;14.00;91.90;;;;;;5015578;28;20511;-60
2022/10/01 05:50:43;;;;;;;38.88;25.80;;;14.00;91.90;;;;;;5015497;28;20033;-59
2022/10/01 05:53:10;;;;;;;39.60;25.13;;;14.00;91.80;;;;;;5013463;28;20121;-60
2022/10/01 05:55:37;;;;;;;41.20;25.90;;;14.00;91.70;;;;;;5015229;28;20010;-60
2022/10/01 05:58:11;;;;;;;40.67;26.60;;;14.00;91.70;;;;;;5015266;28;20038;-62
2022/10/01 06:00:39;;;;;;;46.72;27.45;;;14.10;91.70;;;;;;5015482;28;20026;-63
2022/10/01 06:03:05;;;;;;;39.03;25.58;;;14.10;91.70;;;;;;5015426;28;20026;-61
2022/10/01 06:05:32;;;;;;;37.80;26.10;;;14.10;91.70;;;;;;5015476;28;20065;-61
2022/10/01 06:07:58;;;;;;;;;;;14.20;91.60;;;;;;5015867;28;20056;-62
2022/10/01 06:10:24;;;;;;;36.35;24.65;;;14.20;91.60;;;;;;5015117;28;20311;-61
2022/10/01 06:12:50;;;;;;;37.73;25.10;;;14.20;91.70;;;;;;5015127;28;20401;-60
2022/10/01 06:15:16;;;;;;;37.38;25.60;;;14.30;91.60;;;;;;5013897;28;20022;-58
2022/10/01 06:17:43;;;;;;;42.05;28.58;;;14.30;91.60;;;;;;5015156;28;20488;-57
2022/10/01 06:20:15;;;;;;;41.97;25.67;;;14.40;91.70;;;;;;5015075;28;20026;-59
2022/10/01 06:22:42;;;;;;;38.95;26.00;;;14.40;91.60;;;;;;5014971;28;20104;-58
2022/10/01 06:25:11;;;;;;;38.53;25.30;;;14.50;91.40;;;;;;5013733;28;20052;-58
2022/10/01 06:27:36;;;;;;;40.10;25.85;;;14.60;91.50;;;;;;5015315;28;20388;-59
2022/10/01 06:30:04;;;;;;;33.63;25.55;;;14.70;91.60;;;;;;5014737;28;20022;-57
2022/10/01 06:32:29;;;;;;;37.17;24.60;;;14.70;91.50;;;;;;5014756;28;20500;-59
2022/10/01 06:34:55;;;;;;;39.75;25.65;;;14.80;91.60;;;;;;5014932;28;20050;-59
2022/10/01 06:37:21;;;;;;;38.88;26.73;;;14.90;91.50;;;;;;5014929;28;20030;-59
2022/10/01 06:39:47;;;;;;;37.05;26.23;;;14.90;91.50;;;;;;5014675;28;20076;-62
2022/10/01 06:42:12;;;;;;;35.22;24.30;;;14.90;91.80;;;;;;5014435;28;20026;-62
2022/10/01 06:44:38;;;;;;;36.45;24.75;;;14.90;91.70;;;;;;5014613;28;20033;-60
2022/10/01 06:47:04;;;;;;;40.65;25.42;;;15.00;91.60;;;;;;5013306;28;20073;-63
2022/10/01 06:49:29;;;;;;;36.13;25.17;;;15.00;91.60;;;;;;5013688;28;20033;-62
2022/10/01 06:54:39;;;;;;;40.67;26.77;;;15.00;91.90;;;;;;5014527;28;20463;-60
2022/10/01 06:57:05;;;;;;;43.75;28.38;;;15.00;92.10;;;;;;5014492;28;20053;-61
2022/10/01 06:59:30;;;;;;;44.72;29.88;;;15.10;91.90;;;;;;5014279;28;20511;-61
2022/10/01 07:01:56;;;;;;;44.60;29.70;;;15.10;92.30;;;;;;5014275;28;20030;-61
2022/10/01 07:04:21;;;;;;;43.30;28.40;;;15.20;92.30;;;;;;5014349;28;20026;-61
2022/10/01 07:06:47;;;;;;;41.72;27.13;;;15.30;92.10;;;;;;5014227;28;20036;-61
2022/10/01 07:09:13;;;;;;;45.33;30.02;;;15.40;92.00;;;;;;5012425;28;20610;-61
2022/10/01 07:11:40;;;;;;;44.80;28.27;;;15.50;91.90;;;;;;5013459;28;20105;-62
2022/10/01 07:14:06;;;;;;;;;;;15.60;91.80;;;;;;5014107;28;20049;-61
2022/10/01 07:16:32;;;;;;;47.60;29.25;;;15.70;91.50;;;;;;5012757;28;19912;-61
2022/10/01 07:18:58;;;;;;;36.60;27.10;;;15.70;91.80;;;;;;5013837;28;20061;-62
2022/10/01 07:21:24;;;;;;;43.87;27.00;;;15.80;91.70;;;;;;5014091;28;20417;-61
2022/10/01 07:23:50;;;;;;;35.60;24.95;;;15.90;91.60;;;;;;5013770;28;20264;-60
2022/10/01 07:26:16;;;;;;;34.05;24.35;;;16.00;91.80;;;;;;5012488;28;20030;-62
2022/10/01 07:28:43;;;;;;;37.83;22.85;;;16.20;91.40;;;;;;5013643;28;20101;-60
2022/10/01 07:31:10;;;;;;;38.22;22.17;;;16.30;91.00;;;;;;5013626;28;20033;-61
2022/10/01 07:33:39;;;;;;;34.70;21.05;;;16.40;90.80;;;;;;5013543;28;20500;-61
2022/10/01 07:36:07;;;;;;;31.45;21.42;;;16.40;90.40;;;;;;5013536;28;20026;-62
2022/10/01 07:38:33;;;;;;;34.28;23.45;;;16.40;90.20;;;;;;5013595;28;20400;-61
2022/10/01 07:41:01;;;;;;;34.80;21.17;;;16.50;90.60;;;;;;5013554;28;20029;-61
2022/10/01 07:43:27;;;;;;;35.03;20.42;;;16.60;90.50;;;;;;5013425;28;20022;-62
2022/10/01 07:45:56;;;;;;;31.80;20.93;;;16.60;90.50;;;;;;5013354;28;20029;-61
2022/10/01 07:48:23;;;;;;;27.92;18.38;;;16.70;90.60;;;;;;5013233;28;20504;-62
2022/10/01 07:50:49;;;;;;;25.43;19.10;;;16.80;90.10;;;;;;5013359;28;20096;-61
2022/10/01 07:53:15;;;;;;;29.60;18.42;;;16.80;90.20;;;;;;5013154;28;20026;-62
2022/10/01 07:55:41;;;;;;;36.75;20.52;;;16.80;89.70;;;;;;5013146;28;20030;-61
2022/10/01 07:58:08;;;;;;;29.77;20.10;;;16.80;90.10;;;;;;5012418;28;20022;-62
2022/10/01 08:00:34;;;;;;;29.20;19.85;;;16.90;89.40;;;;;;5011871;28;20385;-61
2022/10/01 08:03:00;;;;;;;29.23;20.10;;;16.90;89.10;;;;;;5012068;28;20164;-61
2022/10/01 08:05:32;;;;;;;32.58;19.58;;;16.90;89.00;;;;;;5013220;28;20069;-60
2022/10/01 08:08:03;;;;;;;31.08;17.73;;;16.90;88.90;;;;;;5011933;28;20036;-62
2022/10/01 08:10:29;;;;;;;27.60;17.40;;;16.90;88.40;;;;;;5012991;28;20041;-62
2022/10/01 08:13:00;;;;;;;29.30;17.27;;;16.90;88.60;;;;;;5012986;28;20424;-62
2022/10/01 08:15:27;;;;;;;28.10;16.15;;;17.00;88.90;;;;;;5012914;28;20026;-57
2022/10/01 08:17:53;;;;;;;33.33;18.30;;;17.00;88.30;;;;;;5012985;28;20033;-59
2022/10/01 08:20:20;;;;;;;33.80;17.65;;;17.20;88.20;;;;;;5012679;28;20030;-58
2022/10/01 08:22:45;;;;;;;;;;;17.20;88.10;;;;;;5013202;28;20022;-57
2022/10/01 08:25:11;;;;;;;30.02;17.52;;;17.30;87.10;;;;;;5012825;28;20283;-54
2022/10/01 08:27:37;;;;;;;30.52;17.48;;;17.30;87.10;;;;;;5012760;28;20073;-57
2022/10/01 08:30:04;;;;;;;31.60;18.15;;;17.40;87.20;;;;;;5012432;28;20033;-56
2022/10/01 08:32:30;;;;;;;28.83;18.20;;;17.50;86.10;;;;;;5038822;23;20086;-56
2022/10/01 08:34:56;;;;;;;26.40;16.95;;;17.50;86.30;;;;;;5051128;28;20109;-57
2022/10/01 08:37:26;;;;;;;22.47;16.27;;;17.40;86.00;;;;;;5052312;28;20039;-56
2022/10/01 08:39:53;;;;;;;26.90;16.60;;;17.50;84.40;;;;;;5051682;28;20251;-59
2022/10/01 08:42:53;;;;;;;25.00;16.75;;;17.40;84.90;;;;;;5049256;28;20111;-55
2022/10/01 08:45:41;;;;;;;21.58;14.95;;;17.40;86.30;;;;;;5031840;28;20029;-57
2022/10/01 08:48:14;;;;;;;;;;;17.60;86.50;;;;;;5032486;28;20422;-55
2022/10/01 08:50:51;;;;;;;24.80;15.38;;;17.70;85.60;;;;;;5031962;28;20383;-57
2022/10/01 08:53:36;;;;;;;22.33;16.42;;;17.90;85.00;;;;;;5032030;28;20024;-55
2022/10/01 08:56:03;;;;;;;22.20;15.05;;;17.80;83.60;;;;;;5030651;28;20025;-56
2022/10/01 08:58:39;;;;;;;23.42;15.85;;;17.70;83.50;;;;;;5031923;28;20039;-57
2022/10/01 09:01:05;;;;;;;22.58;16.08;;;17.80;83.80;;;;;;5031913;28;20391;-56
2022/10/01 09:03:32;;;;;;;24.65;17.35;;;17.80;82.20;;;;;;5031770;28;20494;-57
2022/10/01 09:06:04;;;;;;;;;;;17.90;82.70;;;;;;5031030;28;20159;-57
2022/10/01 09:08:49;;;;;;;24.35;17.75;;;18.00;82.90;;;;;;5031726;28;19952;-56
2022/10/01 09:11:28;;;;;;;20.65;15.85;;;18.10;81.80;;;;;;5030475;28;20033;-56
2022/10/01 09:13:59;;;;;;;20.10;14.90;;;18.10;81.50;;;;;;5031212;28;20026;-55
2022/10/01 09:17:04;;;;;;;21.95;14.70;;;18.00;82.40;;;;;;5032137;28;20025;-55
2022/10/01 09:19:53;;;;;;;19.02;14.00;;;17.90;81.80;;;;;;5031545;28;20128;-57
2022/10/01 09:22:35;;;;;;;24.77;14.68;;;17.90;82.10;;;;;;5031591;28;20036;-58
2022/10/01 09:25:18;;;;;;;18.60;13.32;;;18.00;81.30;;;;;;5031578;28;20072;-56
2022/10/01 09:27:45;;;;;;;20.58;13.57;;;18.00;81.50;;;;;;5031686;28;20025;-56
2022/10/01 09:30:20;;;;;;;21.08;13.88;;;18.10;81.80;;;;;;5031273;28;20472;-57
2022/10/01 09:32:54;;;;;;;23.52;13.52;;;18.20;80.90;;;;;;5030021;28;20033;-55
2022/10/01 09:35:23;;;;;;;18.90;13.68;;;18.20;81.10;;;;;;5031489;28;20026;-57
2022/10/01 09:37:59;;;;;;;17.10;12.68;;;18.30;80.50;;;;;;5030281;28;20033;-56
2022/10/01 09:40:34;;;;;;;19.53;13.97;;;18.30;80.00;;;;;;5030127;28;20035;-57
2022/10/01 09:43:02;;;;;;;19.02;13.40;;;18.30;80.50;;;;;;5031249;28;20021;-56
2022/10/01 09:45:28;;;;;;;19.52;13.95;;;18.30;80.20;;;;;;5031393;28;20051;-56
2022/10/01 09:48:01;;;;;;;19.90;14.68;;;18.40;81.70;;;;;;5031514;28;20033;-57
2022/10/01 09:50:39;;;;;;;16.17;13.65;;;18.40;80.20;;;;;;5031212;28;20101;-58
2022/10/01 09:53:11;;;;;;;;;;;18.50;80.60;;;;;;5031795;28;20032;-58
2022/10/01 09:55:41;;;;;;;19.45;14.88;;;18.70;80.30;;;;;;5031389;28;19905;-56
2022/10/01 09:58:17;;;;;;;19.95;13.60;;;18.70;79.20;;;;;;5031152;28;20052;-56
2022/10/01 10:00:43;;;;;;;24.98;14.80;;;18.70;78.90;;;;;;5031349;28;20040;-55
2022/10/01 10:03:09;;;;;;;19.43;14.20;;;18.80;78.80;;;;;;5031248;28;20025;-57
2022/10/01 10:05:48;;;;;;;20.60;15.68;;;18.80;78.60;;;;;;5031275;28;20549;-55
2022/10/01 10:08:15;;;;;;;26.98;16.80;;;18.90;78.00;;;;;;5030698;28;20044;-58
2022/10/01 10:11:09;;;;;;;21.15;15.45;;;18.90;77.50;;;;;;5030989;28;20108;-57
2022/10/01 10:13:52;;;;;;;18.35;14.70;;;19.00;77.30;;;;;;5029515;28;20029;-57
2022/10/01 10:16:23;;;;;;;21.50;15.52;;;18.90;76.50;;;;;;5031183;28;20551;-56
2022/10/01 10:18:53;;;;;;;18.77;15.40;;;18.90;76.20;;;;;;5031043;28;20087;-54
2022/10/01 10:21:25;;;;;;;19.58;14.65;;;19.00;77.00;;;;;;5031400;28;20068;-57
2022/10/01 10:23:53;;;;;;;22.80;16.77;;;19.10;76.90;;;;;;5031104;28;20108;-55
2022/10/01 10:26:31;;;;;;;17.75;13.82;;;19.10;75.90;;;;;;5033988;28;20021;-54
2022/10/01 10:28:58;;;;;;;17.58;13.77;;;19.00;76.60;;;;;;5034607;28;20121;-54
2022/10/01 10:31:26;;;;;;;21.05;15.98;;;19.00;75.30;;;;;;5034684;28;20033;-56
2022/10/01 10:34:11;;;;;;;23.27;14.80;;;19.00;76.00;;;;;;5034520;28;20043;-55
2022/10/01 10:36:37;;;;;;;20.20;16.35;;;19.10;77.50;;;;;;5034664;28;20021;-55
2022/10/01 10:39:30;;;;;;;19.43;13.43;;;19.10;76.80;;;;;;5033855;28;20112;-54
2022/10/01 10:41:57;;;;;;;33.60;25.98;;;19.30;75.50;;;;;;5031944;28;20029;-52
2022/10/01 10:44:28;;;;;;;16.95;13.43;;;19.30;73.70;;;;;;5031333;28;20053;-54
2022/10/01 10:46:59;;;;;;;17.55;13.93;;;19.30;74.80;;;;;;5033345;28;20565;-55
2022/10/01 10:49:35;;;;;;;20.80;13.88;;;19.40;74.70;;;;;;5032935;28;20030;-56
2022/10/01 10:52:01;;;;;;;16.50;13.23;;;19.40;75.00;;;;;;5034364;28;20021;-56
2022/10/01 10:54:38;;;;;;;15.90;11.10;;;19.50;75.60;;;;;;5033671;28;20021;-57
2022/10/01 10:57:30;;;;;;;;;;;19.60;74.40;;;;;;5034730;28;20044;-57
2022/10/01 11:00:17;;;;;;;13.52;10.40;;;19.70;72.30;;;;;;5029327;28;20667;-54
2022/10/01 11:02:54;;;;;;;12.95;9.90;;;19.70;71.60;;;;;;5032203;28;20052;-57
2022/10/01 11:05:23;;;;;;;10.30;8.68;;;19.70;70.60;;;;;;5034168;28;20030;-57
2022/10/01 11:07:54;;;;;;;10.13;8.88;;;19.70;71.70;;;;;;5033948;28;20049;-58
2022/10/01 11:10:24;;;;;;;13.70;9.25;;;19.70;72.20;;;;;;5033624;28;20021;-56
2022/10/01 11:13:27;;;;;;;13.88;9.10;;;20.00;72.30;;;;;;5031874;28;20036;-56
2022/10/01 11:16:04;;;;;;;14.07;9.15;;;20.10;70.90;;;;;;5033327;28;20028;-58
2022/10/01 11:19:03;;;;;;;11.52;7.85;;;20.20;71.10;;;;;;5029297;28;20029;-57
2022/10/01 11:21:34;;;;;;;9.02;7.70;;;20.10;71.50;;;;;;5032653;28;20024;-56
2022/10/01 11:24:24;;;;;;;12.05;8.45;;;19.90;70.80;;;;;;5032890;28;20025;-57
2022/10/01 11:27:10;;;;;;;22.77;18.63;;;20.10;71.00;;;;;;5031855;28;20037;-56
2022/10/01 11:30:08;;;;;;;11.40;7.22;;;20.30;70.30;;;;;;5033094;28;20033;-55
2022/10/01 11:33:12;;;;;;;8.40;7.10;;;20.50;67.00;;;;;;5032265;28;20160;-56
2022/10/01 11:35:54;;;;;;;10.00;6.97;;;20.50;68.20;;;;;;5029521;28;20026;-55
2022/10/01 11:38:44;;;;;;;7.97;7.18;;;20.30;68.50;;;;;;5031533;28;20025;-57
2022/10/01 11:41:17;;;;;;;9.48;7.15;;;20.50;69.70;;;;;;5030653;28;20032;-54
2022/10/01 11:43:49;;;;;;;9.30;7.30;;;20.50;68.30;;;;;;5032562;28;20395;-55
2022/10/01 11:46:47;;;;;;;8.35;7.40;;;20.50;67.70;;;;;;5030255;28;20087;-55
2022/10/01 11:49:40;;;;;;;7.43;6.63;;;20.50;68.30;;;;;;5029007;28;20049;-56
2022/10/01 11:52:18;;;;;;;9.35;6.38;;;20.60;67.80;;;;;;5032861;28;20040;-57
2022/10/01 11:54:49;;;;;;;;;;;20.70;66.30;;;;;;5033659;28;20034;-56
2022/10/01 12:00:07;;;;;;;6.45;5.10;;;20.70;65.50;;;;;;5033170;28;20447;-55
2022/10/01 12:02:47;;;;;;;7.07;5.18;;;20.80;65.00;;;;;;5032268;28;20096;-56
2022/10/01 12:05:24;;;;;;;7.55;5.68;;;20.90;64.40;;;;;;5032748;28;20053;-55
2022/10/01 12:08:01;;;;;;;8.23;6.13;;;21.00;64.10;;;;;;5033106;28;20033;-56
2022/10/01 12:10:54;;;;;;;8.05;5.65;;;21.10;64.30;;;;;;5032599;28;20044;-56
2022/10/01 12:13:51;;;;;;;9.02;5.80;;;21.00;63.10;;;;;;5032563;28;20097;-57
2022/10/01 12:16:19;;;;;;;7.45;6.55;;;20.80;64.00;;;;;;5032643;28;20036;-54
2022/10/01 12:18:54;;;;;;;7.43;6.10;;;20.60;65.20;;;;;;5032666;28;20032;-55
2022/10/01 12:21:28;;;;;;;5.53;4.93;;;20.70;65.20;;;;;;5032487;28;20083;-56
2022/10/01 12:24:05;;;;;;;7.18;6.47;;;20.70;65.00;;;;;;5032336;28;20034;-58
2022/10/01 12:26:42;;;;;;;9.93;7.20;;;20.80;65.90;;;;;;5032493;28;20388;-56
2022/10/01 12:29:17;;;;;;;6.65;5.97;;;20.80;65.20;;;;;;5032316;28;20493;-57
2022/10/01 12:31:57;;;;;;;8.82;7.13;;;20.90;64.00;;;;;;5012818;28;20026;-57
2022/10/01 12:34:32;;;;;;;8.77;6.57;;;21.00;63.80;;;;;;5030699;28;20037;-56
2022/10/01 12:37:19;;;;;;;6.60;5.97;;;21.10;64.60;;;;;;5031977;28;20036;-55
2022/10/01 12:39:57;;;;;;;7.73;6.77;;;21.20;62.90;;;;;;5032177;28;20440;-55
2022/10/01 12:42:47;;;;;;;8.75;6.80;;;21.40;61.40;;;;;;5030329;28;20110;-57
2022/10/01 12:45:27;;;;;;;13.88;7.55;;;21.30;61.80;;;;;;5031751;28;20054;-55
2022/10/01 12:48:15;;;;;;;8.45;7.20;;;21.30;63.80;;;;;;5031241;28;20025;-55
2022/10/01 12:51:08;;;;;;;7.22;5.60;;;21.60;61.40;;;;;;5031852;28;20045;-58
2022/10/01 12:53:53;;;;;;;8.27;6.45;;;21.60;62.10;;;;;;5030389;28;20030;-57
2022/10/01 12:56:42;;;;;;;7.72;6.63;;;21.90;61.60;;;;;;5031435;28;20033;-54
2022/10/01 12:59:34;;;;;;;7.30;6.45;;;22.30;59.20;;;;;;5031125;28;20028;-56
2022/10/01 13:02:06;;;;;;;6.35;5.57;;;22.90;58.60;;;;;;5030420;28;20073;-56